Radiosonde details



Informationen :

Serial : X3123549
Type : RS41-SGE
Frequency : 403.000MHz
Launchsite : Keflavikurflugvollur
Nearest town : Garðabær, IS (0.5km)

Altitude (Max) : 22106m at 2026-09-04 00:28:04
Speed (Max) : 44km/h at altitude 18991m

Average speed : 18km/h
Average ascent rate : 4m/s
Average descent rate : -13m/s
Ascent rate (Max) : 7.3m/s
Descent rate (Max): -19.6m/s

First frame :
DL9RDZ-2 at 2026-09-03 23:03:33 at altitude 790m (OG: 748m)
Last frame :
DL9RDZ-1 at 2026-09-04 01:21:20 at altitude 162m (OG: 120m)

Flighttime : 2h17m47s
Ascent time : 1h24m31s
Descent time : 53m16s
Uptime : -
Killtimer : 8h02m

Distance (Straight line distance): 37km

Distance (Route):


Frames : 422


Measurement :

Temperature : 9.8°C
Humidity : 83.3%
Pressure : 0hPa


Vertical profile (SkewT) :


Elevation profile :



Receiving stations :


Receiver Frames First received Last received
DL9RDZ-1 422 2026-09-03 23:03:33 2026-09-04 01:21:20

Share per receiver :



All frames :


Receiver Date Latitude Longitude Direction Speed Altitude Climb Temperature Humidity Pressure Voltage Killtimer Uptime BKT XDATA
DL9RDZ-12026-09-04 01:21:2064.09355-21.92378142°13km/h162m-11.6m/s9.8°C83.3%0hPa0V08:02:0000:00:0000:00:00
DL9RDZ-12026-09-04 01:21:0964.09374-21.92417141°5km/h268m-12.0m/s9.0°C76.0%0hPa0V08:02:0000:00:0000:00:00
DL9RDZ-12026-09-04 01:20:5864.09383-21.92445126°5km/h397m-12.2m/s8.1°C75.7%0hPa0V08:03:0000:00:0000:00:00
DL9RDZ-12026-09-04 01:20:4764.09395-21.92483142°11km/h512m-13.0m/s7.6°C73.3%0hPa0V08:03:0000:00:0000:00:00
DL9RDZ-12026-09-04 01:20:3664.09415-21.92535140°13km/h625m-11.3m/s6.7°C76.0%0hPa0V08:03:0000:00:0000:00:00
DL9RDZ-12026-09-04 01:20:2564.09439-21.92579169°11km/h738m-11.1m/s5.8°C78.4%0hPa0V08:03:0000:00:0000:00:00
DL9RDZ-12026-09-04 01:20:1564.09456-21.92589145°4km/h854m-12.0m/s5.4°C76.3%0hPa0V08:04:0000:00:0000:00:00
DL9RDZ-12026-09-04 01:20:0464.09464-21.9259794°2km/h983m-12.6m/s4.2°C81.5%0hPa0V08:04:0000:00:0000:00:00
DL9RDZ-12026-09-04 01:19:5464.09464-21.926120km/h1090m-12.8m/s3.2°C86.9%0hPa0V08:04:0000:00:0000:00:00
DL9RDZ-12026-09-04 01:19:4464.09456-21.92612284°2km/h1203m-11.9m/s2.1°C92.6%0hPa0V08:04:0000:00:0000:00:00
DL9RDZ-12026-09-04 01:19:3364.09447-21.92586290°7km/h1319m-11.9m/s1.3°C93.5%0hPa0V08:04:0000:00:0000:00:00
DL9RDZ-12026-09-04 01:19:2264.09443-21.92558265°4km/h1444m-11.7m/s1.0°C96.3%0hPa0V08:04:0000:00:0000:00:00
DL9RDZ-12026-09-04 01:19:1264.09453-21.92521229°7km/h1561m-12.1m/s0.6°C95.5%0hPa0V08:04:0000:00:0000:00:00
DL9RDZ-12026-09-04 01:19:0164.09467-21.92499179°5km/h1678m-10.6m/s-0.3°C98.3%0hPa0V08:04:0000:00:0000:00:00
DL9RDZ-12026-09-04 01:18:5064.09469-21.92529111°7km/h1790m-11.7m/s-0.4°C94.6%0hPa0V08:04:0000:00:0000:00:00
DL9RDZ-12026-09-04 01:18:3964.09464-21.9257771°9km/h1910m-11.7m/s-1.4°C99.7%0hPa0V08:04:0000:00:0000:00:00
DL9RDZ-12026-09-04 01:18:2864.09456-21.92606114°2km/h2029m-12.1m/s-1.8°C94.6%0hPa0V08:05:0000:00:0000:00:00
DL9RDZ-12026-09-04 01:18:1864.09456-21.926070km/h2140m-11.0m/s-2.5°C93.4%0hPa0V08:05:0000:00:0000:00:00
DL9RDZ-12026-09-04 01:18:0764.09453-21.92604233°2km/h2253m-11.5m/s-3.1°C88.4%0hPa0V08:05:0000:00:0000:00:00
DL9RDZ-12026-09-04 01:17:5764.09458-21.92596214°4km/h2361m-13.5m/s-3.5°C74.3%0hPa0V08:05:0000:00:0000:00:00
DL9RDZ-12026-09-04 01:17:4664.09459-21.9259616°2km/h2493m-11.6m/s-4.6°C78.6%0hPa0V08:05:0000:00:0000:00:00
DL9RDZ-12026-09-04 01:17:3664.09451-21.9260746°4km/h2612m-13.3m/s-5.7°C83.1%0hPa0V08:06:0000:00:0000:00:00
DL9RDZ-12026-09-04 01:17:1564.09426-21.9265744°7km/h2855m-13.2m/s-7.9°C92.8%0hPa0V08:06:0000:00:0000:00:00
DL9RDZ-12026-09-04 01:17:0564.09415-21.9269452°5km/h2965m-11.6m/s-8.9°C0%0hPa0V08:06:0000:00:0000:00:00
DL9RDZ-12026-09-04 01:16:5464.09398-21.9272736°7km/h3089m-12.5m/s-9.9°C0%0hPa0V08:06:0000:00:0000:00:00
DL9RDZ-12026-09-04 01:16:4364.09399-21.92728182°5km/h3220m-12.4m/s-8.9°C71.8%0hPa0V08:07:0000:00:0000:00:00
DL9RDZ-12026-09-04 01:16:3364.09412-21.92718196°5km/h3335m-11.6m/s-9.5°C65.3%0hPa0V08:07:0000:00:0000:00:00
DL9RDZ-12026-09-04 01:16:2364.09429-21.92722157°9km/h3453m-12.3m/s-10.1°C62.8%0hPa0V08:07:0000:00:0000:00:00
DL9RDZ-12026-09-04 01:16:1364.09447-21.92735165°7km/h3576m-12.4m/s-10.7°C55.9%0hPa0V08:07:0000:00:0000:00:00
DL9RDZ-12026-09-04 01:16:0164.09458-21.92745159°2km/h3709m-12.5m/s-11.7°C52.2%0hPa0V08:08:0000:00:0000:00:00
DL9RDZ-12026-09-04 01:15:5164.09464-21.927490km/h3828m-12.2m/s-12.7°C54.3%0hPa0V08:08:0000:00:0000:00:00
DL9RDZ-12026-09-04 01:15:4164.09469-21.92740227°4km/h3945m-11.5m/s-13.6°C56.3%0hPa0V08:08:0000:00:0000:00:00
DL9RDZ-12026-09-04 01:15:3164.09480-21.92710232°9km/h4055m-12.7m/s-14.2°C43.2%0hPa0V08:08:0000:00:0000:00:00
DL9RDZ-12026-09-04 01:15:2064.09499-21.92664219°15km/h4177m-12.1m/s-14.7°C50.1%0hPa0V08:08:0000:00:0000:00:00
DL9RDZ-12026-09-04 01:15:1064.09528-21.92615229°15km/h4296m-12.7m/s-15.5°C60.5%0hPa0V08:09:0000:00:0000:00:00
DL9RDZ-12026-09-04 01:14:5964.09556-21.92556213°13km/h4421m-11.7m/s-16.0°C48.7%0hPa0V08:09:0000:00:0000:00:00
DL9RDZ-12026-09-04 01:14:4864.09590-21.92535171°13km/h4544m-11.2m/s-16.9°C52.5%0hPa0V08:09:0000:00:0000:00:00
DL9RDZ-12026-09-04 01:14:3764.09632-21.92556152°16km/h4688m-12.7m/s-17.8°C73.5%0hPa0V08:09:0000:00:0000:00:00
DL9RDZ-12026-09-04 01:14:2664.09666-21.92598144°13km/h4813m-11.9m/s-18.9°C75.0%0hPa0V08:09:0000:00:0000:00:00
DL9RDZ-12026-09-04 01:14:1664.09691-21.92632162°13km/h4928m-12.6m/s-19.4°C62.2%0hPa0V08:10:0000:00:0000:00:00
DL9RDZ-12026-09-04 01:14:0364.09743-21.92653170°18km/h5100m-14.3m/s-20.5°C53.4%0hPa0V08:10:0000:00:0000:00:00
DL9RDZ-12026-09-04 01:13:5364.09792-21.92672170°22km/h5239m-13.6m/s-21.7°C56.6%0hPa0V08:10:0000:00:0000:00:00
DL9RDZ-12026-09-04 01:13:4364.09851-21.92697168°24km/h5369m-13.7m/s-22.8°C66.1%0hPa0V08:10:0000:00:0000:00:00
DL9RDZ-12026-09-04 01:13:3264.09914-21.92709177°20km/h5518m-13.2m/s-24.1°C53.7%0hPa0V08:10:0000:00:0000:00:00
DL9RDZ-12026-09-04 01:13:2264.09959-21.92716183°16km/h5656m-14.5m/s-25.0°C41.7%0hPa0V00:00:0000:00:0000:00:00
DL9RDZ-12026-09-04 01:13:1164.10005-21.92716182°16km/h5816m-14.6m/s-26.4°C68.7%0hPa0V00:00:0000:00:0000:00:00
DL9RDZ-12026-09-04 01:12:5964.10052-21.92714184°15km/h5979m-13.6m/s-27.1°C54.3%0hPa0V00:00:0000:00:0000:00:00
DL9RDZ-12026-09-04 01:12:4964.10090-21.92733164°18km/h6115m-14.2m/s-28.1°C57.1%0hPa0V00:00:0000:00:0000:00:00
DL9RDZ-12026-09-04 01:12:3964.10132-21.92765166°20km/h6255m-14.8m/s-29.4°C65.7%0hPa0V00:00:0000:00:0000:00:00
DL9RDZ-12026-09-04 01:12:2764.10186-21.92801158°16km/h6419m-14.8m/s-30.7°C62.2%0hPa0V08:11:0000:00:0000:00:00
DL9RDZ-12026-09-04 01:12:1664.10220-21.92850136°13km/h6571m-13.9m/s-31.5°C33.9%0hPa0V08:11:0000:00:0000:00:00
DL9RDZ-12026-09-04 01:12:0564.10236-21.92884101°4km/h6728m-14.1m/s-32.5°C23.6%0hPa0V08:11:0000:00:0000:00:00
DL9RDZ-12026-09-04 01:11:5564.10238-21.9289973°2km/h6870m-14.3m/s-33.4°C14.4%0hPa0V08:11:0000:00:0000:00:00
DL9RDZ-12026-09-04 01:11:4564.10236-21.9294598°9km/h7028m-14.5m/s-34.8°C14.8%0hPa0V08:12:0000:00:0000:00:00
DL9RDZ-12026-09-04 01:11:3364.10234-21.92985102°7km/h7184m-15.1m/s-36.0°C21.1%0hPa0V08:12:0000:00:0000:00:00
DL9RDZ-12026-09-04 01:11:2364.10238-21.93006356°2km/h7328m-15.2m/s-37.0°C21.5%0hPa0V08:12:0000:00:0000:00:00
DL9RDZ-12026-09-04 01:11:1364.10234-21.93003273°4km/h7477m-15.7m/s-38.0°C34.0%0hPa0V08:12:0000:00:0000:00:00
DL9RDZ-12026-09-04 01:11:0364.10235-21.92984277°5km/h7645m-15.4m/s-39.5°C46.4%0hPa0V08:12:0000:00:0000:00:00
DL9RDZ-12026-09-04 01:10:5264.10233-21.92963266°4km/h7800m-15.9m/s-40.7°C49.1%0hPa0V00:00:0000:00:0000:00:00
DL9RDZ-12026-09-04 01:10:4264.10232-21.92943270°2km/h7977m-16.9m/s-42.0°C55.3%0hPa0V00:00:0000:00:0000:00:00
DL9RDZ-12026-09-04 01:10:2164.10237-21.92894243°5km/h8294m-16.7m/s-44.6°C60.1%0hPa0V00:00:0000:00:0000:00:00
DL9RDZ-12026-09-04 01:09:5764.10244-21.92821289°7km/h8676m-16.1m/s-47.4°C44.4%0hPa0V00:00:0000:00:0000:00:00
DL9RDZ-12026-09-04 01:09:4464.10242-21.927950km/h8890m-17.0m/s-48.6°C35.6%0hPa0V00:00:0000:00:0000:00:00
DL9RDZ-12026-09-04 01:09:1664.10231-21.92754324°5km/h9372m-17.4m/s-51.3°C37.1%0hPa0V00:00:0000:00:0000:00:00
DL9RDZ-12026-09-04 01:07:4964.09925-21.9295855°11km/h10826m-17.3m/s-51.4°C3.7%0hPa0V08:16:0000:00:0000:00:00
DL9RDZ-12026-09-04 01:07:3964.09899-21.9301842°15km/h10996m-17.2m/s-49.2°C1.9%0hPa0V08:16:0000:00:0000:00:00
DL9RDZ-12026-09-04 01:07:2964.09870-21.9309254°18km/h11163m-17.3m/s-47.4°C1.6%0hPa0V00:00:0000:00:0000:00:00
DL9RDZ-12026-09-04 01:06:3564.09755-21.9377482°24km/h12127m-19.6m/s-44.9°C0.6%0hPa0V00:00:0000:00:0000:00:00
DL9RDZ-12026-09-04 00:28:0464.04583-22.2253864°27km/h22106m4.4m/s-46.9°C0.8%0hPa0V00:00:0000:00:0000:00:00
DL9RDZ-12026-09-04 00:24:3664.03888-22.2579666°33km/h21103m5.8m/s-48.8°C0.9%0hPa0V00:00:0000:00:0000:00:00
DL9RDZ-12026-09-04 00:24:0864.03768-22.2632762°38km/h20963m4.8m/s-48.8°C0.9%0hPa0V00:00:0000:00:0000:00:00
DL9RDZ-12026-09-04 00:23:4764.03655-22.2670847°38km/h20856m4.8m/s-48.6°C0.9%0hPa0V00:00:0000:00:0000:00:00
DL9RDZ-12026-09-04 00:22:1064.03162-22.2818237°33km/h20359m5.1m/s-47.5°C0.9%0hPa0V00:00:0000:00:0000:00:00
DL9RDZ-12026-09-04 00:21:1064.02856-22.2876166°24km/h20072m3.8m/s-46.5°C0.8%0hPa0V00:00:0000:00:0000:00:00
DL9RDZ-12026-09-04 00:20:5964.02813-22.2891365°35km/h20021m3.6m/s-46.8°C0.8%0hPa0V00:00:0000:00:0000:00:00
DL9RDZ-12026-09-04 00:20:4964.02782-22.2905063°29km/h19977m5.4m/s-46.7°C0.8%0hPa0V00:00:0000:00:0000:00:00
DL9RDZ-12026-09-04 00:20:3964.02747-22.2922085°31km/h19928m5.1m/s-46.6°C0.8%0hPa0V00:00:0000:00:0000:00:00
DL9RDZ-12026-09-04 00:20:2964.02718-22.2938372°31km/h19883m4.1m/s-46.7°C0.8%0hPa0V00:00:0000:00:0000:00:00
DL9RDZ-12026-09-04 00:20:1864.02694-22.2955264°27km/h19838m3.5m/s-46.9°C0.8%0hPa0V00:00:0000:00:0000:00:00
DL9RDZ-12026-09-04 00:20:0764.02670-22.2974871°31km/h19789m3.6m/s-47.1°C0.8%0hPa0V00:00:0000:00:0000:00:00
DL9RDZ-12026-09-04 00:19:5664.02643-22.2997688°40km/h19739m3.9m/s-47.5°C0.9%0hPa0V00:00:0000:00:0000:00:00
DL9RDZ-12026-09-04 00:19:4564.02608-22.3018664°38km/h19690m4.8m/s-47.6°C0.9%0hPa0V00:00:0000:00:0000:00:00
DL9RDZ-12026-09-04 00:19:3464.02581-22.3042580°42km/h19643m4.9m/s-47.7°C0.9%0hPa0V00:00:0000:00:0000:00:00
DL9RDZ-12026-09-04 00:17:3364.02211-22.3282973°42km/h19047m4.4m/s-47.1°C0.9%0hPa0V00:00:0000:00:0000:00:00
DL9RDZ-12026-09-04 00:17:2364.02168-22.3307974°44km/h18991m5.5m/s-47.1°C0.9%0hPa0V00:00:0000:00:0000:00:00
DL9RDZ-12026-09-04 00:17:1164.02121-22.3331262°38km/h18936m4.3m/s-47.0°C0.9%0hPa0V00:00:0000:00:0000:00:00
DL9RDZ-12026-09-04 00:17:0264.02076-22.3351246°40km/h18888m4.1m/s-46.8°C0.9%0hPa0V00:00:0000:00:0000:00:00
DL9RDZ-12026-09-04 00:16:5064.02012-22.3373050°40km/h18837m3.9m/s-46.6°C0.9%0hPa0V00:00:0000:00:0000:00:00
DL9RDZ-12026-09-04 00:16:4064.01940-22.3393156°42km/h18788m4.9m/s-46.4°C0.9%0hPa0V00:00:0000:00:0000:00:00
DL9RDZ-12026-09-04 00:16:3064.01873-22.3411447°40km/h18740m5.3m/s-46.3°C0.9%0hPa0V00:00:0000:00:0000:00:00
DL9RDZ-12026-09-04 00:16:1964.01806-22.3429653°37km/h18687m3.4m/s-45.9°C0.9%0hPa0V00:00:0000:00:0000:00:00
DL9RDZ-12026-09-04 00:16:0964.01744-22.3445144°35km/h18635m4.6m/s-45.8°C0.9%0hPa0V00:00:0000:00:0000:00:00
DL9RDZ-12026-09-04 00:15:5864.01694-22.3458552°31km/h18592m5.1m/s-45.8°C0.9%0hPa0V00:00:0000:00:0000:00:00
DL9RDZ-12026-09-04 00:15:4964.01643-22.3474854°33km/h18546m4.5m/s-45.8°C0.9%0hPa0V00:00:0000:00:0000:00:00
DL9RDZ-12026-09-04 00:15:3764.01575-22.3490942°33km/h18499m4.6m/s-46.0°C0.9%0hPa0V00:00:0000:00:0000:00:00
DL9RDZ-12026-09-04 00:15:2664.01521-22.3508469°38km/h18451m3.8m/s-45.9°C0.9%0hPa0V00:00:0000:00:0000:00:00
DL9RDZ-12026-09-04 00:15:1764.01469-22.3525346°33km/h18408m3.6m/s-46.1°C0.9%0hPa0V00:00:0000:00:0000:00:00
DL9RDZ-12026-09-04 00:15:0664.01415-22.3543450°38km/h18366m3.4m/s-46.4°C0.9%0hPa0V00:00:0000:00:0000:00:00
DL9RDZ-12026-09-04 00:14:3264.01226-22.3592653°26km/h18226m4.4m/s-46.1°C0.9%0hPa0V00:00:0000:00:0000:00:00
DL9RDZ-12026-09-04 00:14:2164.01184-22.3606447°26km/h18179m4.0m/s-46.0°C0.9%0hPa0V00:00:0000:00:0000:00:00
DL9RDZ-12026-09-04 00:14:1064.01149-22.3618252°24km/h18132m4.3m/s-46.0°C0.9%0hPa0V00:00:0000:00:0000:00:00
DL9RDZ-12026-09-04 00:14:0064.01114-22.3630768°29km/h18087m4.6m/s-46.2°C0.9%0hPa0V00:00:0000:00:0000:00:00
DL9RDZ-12026-09-04 00:13:2664.00955-22.3678049°37km/h17939m4.1m/s-46.5°C0.9%0hPa0V00:00:0000:00:0000:00:00
DL9RDZ-12026-09-04 00:13:1464.00881-22.3695643°27km/h17887m4.7m/s-46.4°C0.9%0hPa0V00:00:0000:00:0000:00:00
DL9RDZ-12026-09-04 00:13:0464.00824-22.3707843°29km/h17844m3.9m/s-46.4°C0.9%0hPa0V00:00:0000:00:0000:00:00
DL9RDZ-12026-09-04 00:12:5364.00776-22.3717365°26km/h17791m4.2m/s-46.6°C0.9%0hPa0V00:00:0000:00:0000:00:00
DL9RDZ-12026-09-04 00:12:0564.00686-22.3765095°18km/h17574m3.9m/s-46.7°C0.9%0hPa0V00:00:0000:00:0000:00:00
DL9RDZ-12026-09-04 00:11:5464.00691-22.37761115°22km/h17526m4.5m/s-46.5°C0.9%0hPa0V00:00:0000:00:0000:00:00
DL9RDZ-12026-09-04 00:11:4464.00699-22.37854109°20km/h17481m4.0m/s-46.3°C0.9%0hPa0V00:00:0000:00:0000:00:00
DL9RDZ-12026-09-04 00:11:3464.00709-22.3796477°15km/h17436m3.9m/s-46.3°C0.9%0hPa0V00:00:0000:00:0000:00:00
DL9RDZ-12026-09-04 00:11:2364.00714-22.3810198°24km/h17388m4.5m/s-46.2°C0.9%0hPa0V00:00:0000:00:0000:00:00
DL9RDZ-12026-09-04 00:10:2464.00664-22.3887573°26km/h17127m4.1m/s-45.8°C0.9%0hPa0V00:00:0000:00:0000:00:00
DL9RDZ-12026-09-04 00:09:2764.00591-22.3997479°37km/h16886m4.3m/s-46.5°C0.9%0hPa0V00:00:0000:00:0000:00:00
DL9RDZ-12026-09-04 00:09:1764.00568-22.4020883°33km/h16839m4.1m/s-46.8°C0.9%0hPa0V00:00:0000:00:0000:00:00
DL9RDZ-12026-09-04 00:08:4664.00469-22.4081874°37km/h16711m4.7m/s-46.6°C0.9%0hPa0V00:00:0000:00:0000:00:00
DL9RDZ-12026-09-04 00:08:3564.00439-22.4102972°40km/h16664m4.0m/s-46.5°C0.9%0hPa0V00:00:0000:00:0000:00:00
DL9RDZ-12026-09-04 00:08:2564.00413-22.4123470°35km/h16616m4.4m/s-46.7°C1.0%0hPa0V00:00:0000:00:0000:00:00
DL9RDZ-12026-09-04 00:08:1464.00382-22.4142766°31km/h16569m4.1m/s-46.8°C0.9%0hPa0V00:00:0000:00:0000:00:00
DL9RDZ-12026-09-04 00:08:0464.00343-22.4161862°38km/h16525m4.4m/s-47.0°C1.0%0hPa0V00:00:0000:00:0000:00:00
DL9RDZ-12026-09-04 00:07:5464.00299-22.4180059°37km/h16480m4.6m/s-47.2°C1.0%0hPa0V00:00:0000:00:0000:00:00
DL9RDZ-12026-09-04 00:07:4364.00249-22.4195759°26km/h16429m5.3m/s-47.1°C1.0%0hPa0V00:00:0000:00:0000:00:00
DL9RDZ-12026-09-04 00:07:3264.00197-22.4207953°22km/h16377m4.8m/s-47.1°C1.0%0hPa0V00:00:0000:00:0000:00:00
DL9RDZ-12026-09-04 00:07:2264.00159-22.4218154°22km/h16331m3.8m/s-46.9°C1.0%0hPa0V00:00:0000:00:0000:00:00
DL9RDZ-12026-09-04 00:07:1264.00134-22.4228767°20km/h16286m3.9m/s-46.9°C1.0%0hPa0V00:00:0000:00:0000:00:00
DL9RDZ-12026-09-04 00:07:0264.00123-22.4241291°20km/h16237m4.8m/s-46.7°C1.0%0hPa0V00:00:0000:00:0000:00:00
DL9RDZ-12026-09-04 00:06:5164.00118-22.4252880°20km/h16190m4.6m/s-46.5°C1.0%0hPa0V00:00:0000:00:0000:00:00
DL9RDZ-12026-09-04 00:06:4164.00112-22.4266284°24km/h16146m4.4m/s-46.2°C0.9%0hPa0V00:00:0000:00:0000:00:00
DL9RDZ-12026-09-04 00:06:3064.00101-22.4281579°27km/h16098m4.3m/s-46.2°C0.9%0hPa0V00:00:0000:00:0000:00:00
DL9RDZ-12026-09-04 00:06:2064.00101-22.4298898°26km/h16050m3.8m/s-46.3°C1.0%0hPa0V00:00:0000:00:0000:00:00
DL9RDZ-12026-09-04 00:06:0864.00094-22.4315191°22km/h16000m4.2m/s-46.4°C0.9%0hPa0V00:00:0000:00:0000:00:00
DL9RDZ-12026-09-04 00:05:5664.00099-22.4334796°27km/h15949m4.4m/s-46.4°C1.0%0hPa0V00:00:0000:00:0000:00:00
DL9RDZ-12026-09-04 00:05:4564.00103-22.4356089°37km/h15901m4.2m/s-46.6°C1.0%0hPa0V00:00:0000:00:0000:00:00
DL9RDZ-12026-09-04 00:05:3464.00105-22.4380289°38km/h15855m4.7m/s-46.4°C1.0%0hPa0V00:00:0000:00:0000:00:00
DL9RDZ-12026-09-04 00:05:2364.00095-22.4404788°40km/h15808m3.6m/s-46.3°C1.0%0hPa0V00:00:0000:00:0000:00:00
DL9RDZ-12026-09-04 00:05:1364.00072-22.4429580°40km/h15765m3.4m/s-46.2°C1.0%0hPa0V00:00:0000:00:0000:00:00
DL9RDZ-12026-09-04 00:05:0164.00039-22.4452371°40km/h15722m4.0m/s-46.3°C1.0%0hPa0V00:00:0000:00:0000:00:00
DL9RDZ-12026-09-04 00:04:5063.99995-22.4476457°38km/h15676m3.6m/s-46.4°C1.0%0hPa0V00:00:0000:00:0000:00:00
DL9RDZ-12026-09-04 00:04:4163.99939-22.4494556°33km/h15631m3.8m/s-46.4°C1.0%0hPa0V00:00:0000:00:0000:00:00
DL9RDZ-12026-09-04 00:04:2963.99885-22.4510954°31km/h15593m3.4m/s-46.3°C1.0%0hPa0V00:00:0000:00:0000:00:00
DL9RDZ-12026-09-04 00:04:1963.99838-22.4526558°31km/h15548m3.5m/s-46.3°C1.0%0hPa0V00:00:0000:00:0000:00:00
DL9RDZ-12026-09-04 00:03:5063.99744-22.4566976°29km/h15430m4.4m/s-45.9°C1.0%0hPa0V00:00:0000:00:0000:00:00
DL9RDZ-12026-09-04 00:03:4063.99725-22.4583284°26km/h15384m3.7m/s-45.8°C1.0%0hPa0V00:00:0000:00:0000:00:00
DL9RDZ-12026-09-04 00:03:2763.99714-22.4602891°31km/h15333m3.4m/s-45.7°C1.0%0hPa0V00:00:0000:00:0000:00:00
DL9RDZ-12026-09-04 00:03:1663.99708-22.4622282°37km/h15286m4.2m/s-45.9°C1.0%0hPa0V00:00:0000:00:0000:00:00
DL9RDZ-12026-09-04 00:03:0563.99696-22.4645486°38km/h15239m3.4m/s-45.9°C1.0%0hPa0V00:00:0000:00:0000:00:00
DL9RDZ-12026-09-04 00:02:2763.99575-22.4745976°16km/h14992m4.0m/s-45.4°C1.0%0hPa0V00:00:0000:00:0000:00:00
DL9RDZ-12026-09-04 00:02:0563.99531-22.4768663°26km/h14914m4.6m/s-45.4°C1.0%0hPa0V00:00:0000:00:0000:00:00
DL9RDZ-12026-09-04 00:01:4863.99499-22.4786969°27km/h14862m4.5m/s-45.5°C1.0%0hPa0V00:00:0000:00:0000:00:00
DL9RDZ-12026-09-04 00:01:3263.99477-22.4801875°29km/h14813m4.7m/s-45.5°C1.1%0hPa0V00:00:0000:00:0000:00:00
DL9RDZ-12026-09-04 00:01:0463.99432-22.4834881°33km/h14716m3.7m/s-45.7°C1.0%0hPa0V00:00:0000:00:0000:00:00
DL9RDZ-12026-09-04 00:00:5363.99407-22.4852961°29km/h14667m4.1m/s-45.6°C1.1%0hPa0V00:00:0000:00:0000:00:00
DL9RDZ-12026-09-04 00:00:4463.99373-22.4865852°20km/h14621m3.6m/s-45.4°C1.1%0hPa0V00:00:0000:00:0000:00:00
DL9RDZ-12026-09-04 00:00:3663.99329-22.4875657°18km/h14571m4.0m/s-45.2°C1.1%0hPa0V00:00:0000:00:0000:00:00
DL9RDZ-12026-09-04 00:00:2163.99294-22.4885234°15km/h14522m4.3m/s-44.9°C1.0%0hPa0V00:00:0000:00:0000:00:00
DL9RDZ-12026-09-04 00:00:1163.99262-22.4892153°18km/h14478m3.9m/s-44.7°C1.0%0hPa0V00:00:0000:00:0000:00:00
DL9RDZ-12026-09-04 00:00:0063.99238-22.4899666°16km/h14432m3.9m/s-44.4°C1.0%0hPa0V00:00:0000:00:0000:00:00
DL9RDZ-12026-09-03 23:59:4963.99214-22.4910154°20km/h14384m3.7m/s-44.5°C1.0%0hPa0V00:00:0000:00:0000:00:00
DL9RDZ-12026-09-03 23:59:3863.99192-22.4922884°24km/h14337m3.7m/s-44.8°C1.1%0hPa0V00:00:0000:00:0000:00:00
DL9RDZ-12026-09-03 23:58:5163.99133-22.4992971°31km/h14146m4.3m/s-44.7°C1.1%0hPa0V00:00:0000:00:0000:00:00
DL9RDZ-12026-09-03 23:58:4163.99099-22.5007562°31km/h14104m4.7m/s-44.8°C1.1%0hPa0V00:00:0000:00:0000:00:00
DL9RDZ-12026-09-03 23:58:3163.99055-22.5023353°29km/h14064m4.7m/s-44.7°C1.1%0hPa0V00:00:0000:00:0000:00:00
DL9RDZ-12026-09-03 23:58:2063.99017-22.5040669°33km/h14016m4.0m/s-44.6°C1.0%0hPa0V00:00:0000:00:0000:00:00
DL9RDZ-12026-09-03 23:58:0963.98983-22.5058370°31km/h13970m3.2m/s-44.4°C1.1%0hPa0V00:00:0000:00:0000:00:00
DL9RDZ-12026-09-03 23:57:5963.98958-22.5073674°29km/h13927m4.5m/s-44.1°C1.0%0hPa0V00:00:0000:00:0000:00:00
DL9RDZ-12026-09-03 23:57:4863.98938-22.5091967°24km/h13879m4.9m/s-44.6°C1.0%0hPa0V00:00:0000:00:0000:00:00
DL9RDZ-12026-09-03 23:57:3763.98936-22.5109181°27km/h13834m4.3m/s-44.6°C1.1%0hPa0V00:00:0000:00:0000:00:00
DL9RDZ-12026-09-03 23:57:2763.98922-22.5123685°24km/h13794m4.7m/s-44.7°C1.1%0hPa0V00:00:0000:00:0000:00:00
DL9RDZ-12026-09-03 23:57:1663.98903-22.5140083°27km/h13748m4.1m/s-45.0°C1.1%0hPa0V00:00:0000:00:0000:00:00
DL9RDZ-12026-09-03 23:57:0563.98890-22.5157570°26km/h13700m4.3m/s-45.0°C1.1%0hPa0V00:00:0000:00:0000:00:00
DL9RDZ-12026-09-03 23:56:5463.98868-22.5176871°33km/h13655m3.9m/s-45.0°C1.1%0hPa0V00:00:0000:00:0000:00:00
DL9RDZ-12026-09-03 23:56:4463.98853-22.5194386°29km/h13616m3.4m/s-44.9°C1.1%0hPa0V00:00:0000:00:0000:00:00
DL9RDZ-12026-09-03 23:56:3363.98841-22.5211985°27km/h13570m4.1m/s-44.8°C1.1%0hPa0V00:00:0000:00:0000:00:00
DL9RDZ-12026-09-03 23:56:2163.98825-22.5233978°31km/h13515m4.5m/s-45.0°C1.1%0hPa0V00:00:0000:00:0000:00:00
DL9RDZ-12026-09-03 23:56:1063.98814-22.5251281°29km/h13472m4.5m/s-45.1°C1.2%0hPa0V00:00:0000:00:0000:00:00
DL9RDZ-12026-09-03 23:56:0063.98799-22.5269780°37km/h13430m4.0m/s-45.1°C1.1%0hPa0V00:00:0000:00:0000:00:00
DL9RDZ-12026-09-03 23:55:5063.98784-22.5288178°27km/h13390m4.7m/s-45.3°C1.2%0hPa0V00:00:0000:00:0000:00:00
DL9RDZ-12026-09-03 23:55:4063.98768-22.5302476°26km/h13348m3.8m/s-45.4°C1.2%0hPa0V00:00:0000:00:0000:00:00
DL9RDZ-12026-09-03 23:55:2963.98754-22.5319081°29km/h13303m3.8m/s-45.2°C1.2%0hPa0V00:00:0000:00:0000:00:00
DL9RDZ-12026-09-03 23:55:1963.98743-22.5335676°27km/h13262m3.4m/s-45.1°C1.2%0hPa0V00:00:0000:00:0000:00:00
DL9RDZ-12026-09-03 23:55:0863.98726-22.5353277°29km/h13219m3.0m/s-45.3°C1.2%0hPa0V00:00:0000:00:0000:00:00
DL9RDZ-12026-09-03 23:54:5863.98710-22.5370274°31km/h13178m3.4m/s-45.3°C1.2%0hPa0V00:00:0000:00:0000:00:00
DL9RDZ-12026-09-03 23:54:4863.98707-22.5386683°29km/h13140m3.8m/s-45.3°C1.2%0hPa0V00:00:0000:00:0000:00:00
DL9RDZ-12026-09-03 23:54:3763.98697-22.5405787°27km/h13094m3.9m/s-45.4°C1.2%0hPa0V00:00:0000:00:0000:00:00
DL9RDZ-12026-09-03 23:54:2663.98685-22.5426078°33km/h13050m4.3m/s-45.5°C1.2%0hPa0V00:00:0000:00:0000:00:00
DL9RDZ-12026-09-03 23:54:1563.98681-22.5446190°35km/h13005m3.6m/s-45.7°C1.3%0hPa0V00:00:0000:00:0000:00:00
DL9RDZ-12026-09-03 23:54:0463.98679-22.5466184°33km/h12962m4.3m/s-45.5°C1.3%0hPa0V00:00:0000:00:0000:00:00
DL9RDZ-12026-09-03 23:53:5363.98668-22.5489384°35km/h12917m4.3m/s-45.3°C1.3%0hPa0V00:00:0000:00:0000:00:00
DL9RDZ-12026-09-03 23:53:4263.98653-22.5511181°37km/h12876m3.5m/s-45.1°C1.3%0hPa0V00:00:0000:00:0000:00:00
DL9RDZ-12026-09-03 23:53:1663.98588-22.5559774°35km/h12768m3.4m/s-44.9°C1.2%0hPa0V00:00:0000:00:0000:00:00
DL9RDZ-12026-09-03 23:53:0563.98553-22.5577468°29km/h12724m3.3m/s-45.0°C1.3%0hPa0V00:00:0000:00:0000:00:00
DL9RDZ-12026-09-03 23:52:5463.98534-22.5592469°24km/h12680m3.9m/s-45.2°C1.3%0hPa0V00:00:0000:00:0000:00:00
DL9RDZ-12026-09-03 23:52:0663.98389-22.5642564°15km/h12487m3.2m/s-45.3°C1.4%0hPa0V00:00:0000:00:0000:00:00
DL9RDZ-12026-09-03 23:49:2263.98135-22.5837278°26km/h11845m3.5m/s-46.0°C1.5%0hPa0V00:00:0000:00:0000:00:00
DL9RDZ-12026-09-03 23:49:1163.98109-22.5851672°27km/h11801m3.6m/s-46.2°C1.5%0hPa0V00:00:0000:00:0000:00:00
DL9RDZ-12026-09-03 23:49:0063.98086-22.5866264°26km/h11760m4.5m/s-45.8°C1.5%0hPa0V00:00:0000:00:0000:00:00
DL9RDZ-12026-09-03 23:48:5063.98062-22.5880664°27km/h11721m3.4m/s-45.8°C1.6%0hPa0V00:00:0000:00:0000:00:00
DL9RDZ-12026-09-03 23:48:4063.98027-22.5896062°29km/h11681m4.7m/s-46.0°C1.6%0hPa0V00:00:0000:00:0000:00:00
DL9RDZ-12026-09-03 23:48:2963.97980-22.5911061°29km/h11639m4.2m/s-46.2°C1.7%0hPa0V00:00:0000:00:0000:00:00
DL9RDZ-12026-09-03 23:48:1863.97927-22.5924245°24km/h11597m4.3m/s-46.3°C1.8%0hPa0V00:00:0000:00:0000:00:00
DL9RDZ-12026-09-03 23:48:0863.97885-22.5935743°24km/h11557m3.7m/s-46.4°C1.7%0hPa0V00:00:0000:00:0000:00:00
DL9RDZ-12026-09-03 23:47:5763.97843-22.5945249°26km/h11514m3.6m/s-46.3°C1.8%0hPa0V00:00:0000:00:0000:00:00
DL9RDZ-12026-09-03 23:47:4763.97812-22.5954059°20km/h11475m3.8m/s-46.3°C1.8%0hPa0V00:00:0000:00:0000:00:00
DL9RDZ-12026-09-03 23:47:3763.97786-22.5964566°15km/h11436m4.6m/s-46.4°C2.0%0hPa0V00:00:0000:00:0000:00:00
DL9RDZ-12026-09-03 23:47:2663.97762-22.5972554°16km/h11393m4.1m/s-46.7°C2.1%0hPa0V00:00:0000:00:0000:00:00
DL9RDZ-12026-09-03 23:47:1563.97742-22.5979064°15km/h11350m3.7m/s-47.2°C2.3%0hPa0V00:00:0000:00:0000:00:00
DL9RDZ-12026-09-03 23:47:0463.97730-22.5986080°16km/h11308m4.4m/s-47.3°C2.4%0hPa0V00:00:0000:00:0000:00:00
DL9RDZ-12026-09-03 23:46:5463.97716-22.5994973°15km/h11268m3.0m/s-47.5°C2.4%0hPa0V00:00:0000:00:0000:00:00
DL9RDZ-12026-09-03 23:46:4363.97694-22.6003645°16km/h11223m4.3m/s-47.9°C2.3%0hPa0V00:00:0000:00:0000:00:00
DL9RDZ-12026-09-03 23:46:3263.97674-22.6012064°20km/h11179m4.4m/s-47.6°C2.3%0hPa0V00:00:0000:00:0000:00:00
DL9RDZ-12026-09-03 23:46:1163.97616-22.6030433°18km/h11094m3.7m/s-48.3°C3.0%0hPa0V00:00:0000:00:0000:00:00
DL9RDZ-12026-09-03 23:46:0163.97586-22.6038439°20km/h11056m3.4m/s-48.8°C3.3%0hPa0V00:00:0000:00:0000:00:00
DL9RDZ-12026-09-03 23:45:5163.97562-22.6044054°11km/h11017m3.2m/s-48.9°C3.6%0hPa0V00:00:0000:00:0000:00:00
DL9RDZ-12026-09-03 23:45:4063.97538-22.6052159°22km/h10975m4.3m/s-49.2°C3.9%0hPa0V00:00:0000:00:0000:00:00
DL9RDZ-12026-09-03 23:45:3063.97506-22.6060332°16km/h10937m3.4m/s-49.8°C4.5%0hPa0V00:00:0000:00:0000:00:00
DL9RDZ-12026-09-03 23:45:1963.97471-22.6067346°20km/h10897m3.8m/s-50.7°C5.5%0hPa0V00:00:0000:00:0000:00:00
DL9RDZ-12026-09-03 23:45:0963.97447-22.6072736°9km/h10859m4.2m/s-51.1°C6.4%0hPa0V00:00:0000:00:0000:00:00
DL9RDZ-12026-09-03 23:44:5963.97429-22.6078467°11km/h10820m4.4m/s-51.9°C7.2%0hPa0V00:00:0000:00:0000:00:00
DL9RDZ-12026-09-03 23:44:4863.97416-22.6084873°18km/h10778m4.1m/s-51.8°C7.4%0hPa0V00:00:0000:00:0000:00:00
DL9RDZ-12026-09-03 23:44:3863.97398-22.6094263°22km/h10741m2.7m/s-51.5°C7.7%0hPa0V00:00:0000:00:0000:00:00
DL9RDZ-12026-09-03 23:44:2763.97365-22.6105846°22km/h10697m4.1m/s-51.3°C8.1%0hPa0V00:00:0000:00:0000:00:00
DL9RDZ-12026-09-03 23:44:1663.97332-22.6117160°26km/h10653m3.9m/s-51.4°C9.5%0hPa0V00:00:0000:00:0000:00:00
DL9RDZ-12026-09-03 23:44:0663.97292-22.6127940°13km/h10611m3.8m/s-52.3°C11.1%0hPa0V00:00:0000:00:0000:00:00
DL9RDZ-12026-09-03 23:43:5563.97247-22.6132920°16km/h10568m4.2m/s-53.5°C12.3%0hPa0V00:00:0000:00:0000:00:00
DL9RDZ-12026-09-03 23:43:4463.97201-22.6136718°15km/h10527m3.1m/s-53.6°C10.8%0hPa0V00:00:0000:00:0000:00:00
DL9RDZ-12026-09-03 23:43:3363.97160-22.6139117°20km/h10488m3.4m/s-53.4°C11.5%0hPa0V00:00:0000:00:0000:00:00
DL9RDZ-12026-09-03 23:43:2263.97111-22.6143623°20km/h10446m4.0m/s-53.1°C15.1%0hPa0V00:00:0000:00:0000:00:00
DL9RDZ-12026-09-03 23:43:1163.97054-22.6148419°20km/h10403m4.5m/s-53.4°C21.0%0hPa0V00:00:0000:00:0000:00:00
DL9RDZ-12026-09-03 23:43:0263.96995-22.6151911°27km/h10368m3.6m/s-53.3°C21.3%0hPa0V00:00:0000:00:0000:00:00
DL9RDZ-12026-09-03 23:42:5063.96923-22.6154911°27km/h10327m3.7m/s-53.1°C21.7%0hPa0V00:00:0000:00:0000:00:00
DL9RDZ-12026-09-03 23:42:4063.96857-22.6156927km/h10289m2.9m/s-53.0°C23.8%0hPa0V00:00:0000:00:0000:00:00
DL9RDZ-12026-09-03 23:42:3063.96795-22.6160321°24km/h10250m4.3m/s-53.3°C26.8%0hPa0V00:00:0000:00:0000:00:00
DL9RDZ-12026-09-03 23:42:2063.96733-22.6165321°20km/h10210m3.9m/s-53.0°C27.1%0hPa0V00:00:0000:00:0000:00:00
DL9RDZ-12026-09-03 23:42:0963.96671-22.61691359°27km/h10160m4.7m/s-52.9°C27.1%0hPa0V00:00:0000:00:0000:00:00
DL9RDZ-12026-09-03 23:41:5963.96602-22.6169829km/h10115m4.0m/s-52.8°C28.0%0hPa0V00:00:0000:00:0000:00:00
DL9RDZ-12026-09-03 23:41:4863.96528-22.61698358°27km/h10072m4.5m/s-52.8°C28.8%0hPa0V00:00:0000:00:0000:00:00
DL9RDZ-12026-09-03 23:41:3763.96458-22.61649339°24km/h10028m3.6m/s-52.7°C29.3%0hPa0V00:00:0000:00:0000:00:00
DL9RDZ-12026-09-03 23:41:2763.96400-22.61601339°27km/h9987m3.8m/s-52.8°C29.7%0hPa0V00:00:0000:00:0000:00:00
DL9RDZ-12026-09-03 23:41:1763.96350-22.61538335°22km/h9950m3.9m/s-52.7°C30.8%0hPa0V00:00:0000:00:0000:00:00
DL9RDZ-12026-09-03 23:41:0763.96300-22.61494344°20km/h9909m3.3m/s-52.6°C31.7%0hPa0V00:00:0000:00:0000:00:00
DL9RDZ-12026-09-03 23:40:5763.96251-22.61453340°22km/h9870m4.4m/s-52.3°C34.2%0hPa0V00:00:0000:00:0000:00:00
DL9RDZ-12026-09-03 23:40:4663.96195-22.61414349°22km/h9829m3.2m/s-52.7°C39.2%0hPa0V00:00:0000:00:0000:00:00
DL9RDZ-12026-09-03 23:40:3563.96136-22.61378334°20km/h9789m3.5m/s-52.5°C42.2%0hPa0V00:00:0000:00:0000:00:00
DL9RDZ-12026-09-03 23:40:2463.96086-22.61320325°20km/h9751m3.2m/s-53.0°C46.3%0hPa0V00:00:0000:00:0000:00:00
DL9RDZ-12026-09-03 23:40:1463.96050-22.61268338°13km/h9713m4.3m/s-52.9°C44.4%0hPa0V00:00:0000:00:0000:00:00
DL9RDZ-12026-09-03 23:40:0463.96011-22.61253361°16km/h9677m3.0m/s-52.8°C44.5%0hPa0V00:00:0000:00:0000:00:00
DL9RDZ-12026-09-03 23:39:5363.95967-22.61232346°18km/h9637m3.3m/s-52.6°C44.0%0hPa0V00:00:0000:00:0000:00:00
DL9RDZ-12026-09-03 23:39:4263.95923-22.61210351°16km/h9598m3.7m/s-52.4°C44.6%0hPa0V00:00:0000:00:0000:00:00
DL9RDZ-12026-09-03 23:39:2163.95846-22.6120611°13km/h9520m4.1m/s-52.0°C45.1%0hPa0V00:00:0000:00:0000:00:00
DL9RDZ-12026-09-03 23:39:1063.95802-22.6122111°16km/h9480m3.5m/s-51.8°C45.5%0hPa0V00:00:0000:00:0000:00:00
DL9RDZ-12026-09-03 23:39:0063.95760-22.6125510°13km/h9441m3.5m/s-51.6°C45.9%0hPa0V00:00:0000:00:0000:00:00
DL9RDZ-12026-09-03 23:38:4763.95719-22.6127917°15km/h9398m3.0m/s-51.3°C46.9%0hPa0V00:00:0000:00:0000:00:00
DL9RDZ-12026-09-03 23:38:3663.95679-22.6128913km/h9358m3.4m/s-51.1°C49.8%0hPa0V00:00:0000:00:0000:00:00
DL9RDZ-12026-09-03 23:38:2563.95646-22.6130716°11km/h9318m3.9m/s-51.0°C46.1%0hPa0V00:00:0000:00:0000:00:00
DL9RDZ-12026-09-03 23:38:1563.95618-22.6132124°13km/h9281m3.2m/s-50.8°C41.8%0hPa0V00:00:0000:00:0000:00:00
DL9RDZ-12026-09-03 23:38:0563.95586-22.6135724°13km/h9246m3.6m/s-50.9°C46.8%0hPa0V00:00:0000:00:0000:00:00
DL9RDZ-12026-09-03 23:37:5563.95565-22.6138831°11km/h9211m3.2m/s-50.7°C46.4%0hPa0V00:00:0000:00:0000:00:00
DL9RDZ-12026-09-03 23:37:4463.95546-22.6141845°7km/h9171m3.6m/s-50.5°C45.7%0hPa0V00:00:0000:00:0000:00:00
DL9RDZ-12026-09-03 23:37:3463.95527-22.614355km/h9133m4.2m/s-50.3°C46.6%0hPa0V00:00:0000:00:0000:00:00
DL9RDZ-12026-09-03 23:37:2363.95506-22.6144719°7km/h9094m3.9m/s-50.0°C46.5%0hPa0V00:00:0000:00:0000:00:00
DL9RDZ-12026-09-03 23:37:1263.95490-22.6146433°9km/h9053m4.2m/s-49.8°C49.0%0hPa0V00:00:0000:00:0000:00:00
DL9RDZ-12026-09-03 23:37:0163.95471-22.6148824°7km/h9011m3.6m/s-49.5°C52.5%0hPa0V00:00:0000:00:0000:00:00
DL9RDZ-12026-09-03 23:36:5063.95452-22.6150430°7km/h8971m4.2m/s-49.4°C58.3%0hPa0V00:00:0000:00:0000:00:00
DL9RDZ-12026-09-03 23:36:4063.95440-22.6153242°7km/h8934m3.5m/s-49.2°C60.5%0hPa0V00:00:0000:00:0000:00:00
DL9RDZ-12026-09-03 23:36:2963.95427-22.6156343°9km/h8893m3.4m/s-48.9°C60.3%0hPa0V00:00:0000:00:0000:00:00
DL9RDZ-12026-09-03 23:36:1963.95414-22.6160480°5km/h8856m4.0m/s-48.6°C59.2%0hPa0V00:00:0000:00:0000:00:00
DL9RDZ-12026-09-03 23:36:0963.95402-22.6163144°7km/h8816m3.7m/s-48.3°C60.5%0hPa0V00:00:0000:00:0000:00:00
DL9RDZ-12026-09-03 23:35:5763.95395-22.6165183°4km/h8778m3.1m/s-48.1°C62.0%0hPa0V00:00:0000:00:0000:00:00
DL9RDZ-12026-09-03 23:35:4763.95388-22.6166119°4km/h8742m4.0m/s-47.8°C61.7%0hPa0V00:00:0000:00:0000:00:00
DL9RDZ-12026-09-03 23:35:3763.95383-22.616684km/h8703m3.1m/s-47.6°C64.6%0hPa0V00:00:0000:00:0000:00:00
DL9RDZ-12026-09-03 23:35:2663.95377-22.61668352°4km/h8663m3.4m/s-47.3°C61.6%0hPa0V00:00:0000:00:0000:00:00
DL9RDZ-12026-09-03 23:35:1563.95371-22.61657296°4km/h8621m4.2m/s-47.0°C59.1%0hPa0V00:00:0000:00:0000:00:00
DL9RDZ-12026-09-03 23:35:0463.95371-22.61649244°5km/h8578m3.3m/s-46.6°C58.1%0hPa0V00:00:0000:00:0000:00:00
DL9RDZ-12026-09-03 23:34:5463.95372-22.6164497°2km/h8541m2.9m/s-46.3°C58.7%0hPa0V00:00:0000:00:0000:00:00
DL9RDZ-12026-09-03 23:34:4463.95370-22.61640338°2km/h8497m4.1m/s-45.9°C58.1%0hPa0V00:00:0000:00:0000:00:00
DL9RDZ-12026-09-03 23:34:3263.95364-22.616460km/h8458m3.6m/s-45.5°C57.4%0hPa0V00:00:0000:00:0000:00:00
DL9RDZ-12026-09-03 23:34:2163.95364-22.61640314°4km/h8417m4.7m/s-45.1°C55.0%0hPa0V00:00:0000:00:0000:00:00
DL9RDZ-12026-09-03 23:34:1063.95357-22.61631347°5km/h8373m3.5m/s-44.8°C52.7%0hPa0V00:00:0000:00:0000:00:00
DL9RDZ-12026-09-03 23:33:5963.95347-22.6163026°5km/h8331m4.1m/s-44.4°C48.4%0hPa0V00:00:0000:00:0000:00:00
DL9RDZ-12026-09-03 23:33:4863.95337-22.61624334°4km/h8290m3.2m/s-44.0°C47.6%0hPa0V00:00:0000:00:0000:00:00
DL9RDZ-12026-09-03 23:33:3863.95327-22.61617317°5km/h8251m4.0m/s-43.7°C43.9%0hPa0V00:00:0000:00:0000:00:00
DL9RDZ-12026-09-03 23:33:2763.95316-22.61600349°5km/h8207m4.3m/s-43.3°C39.0%0hPa0V00:00:0000:00:0000:00:00
DL9RDZ-12026-09-03 23:33:1763.95309-22.61590271°7km/h8168m4.6m/s-43.0°C37.3%0hPa0V00:00:0000:00:0000:00:00
DL9RDZ-12026-09-03 23:33:0763.95299-22.61554353°4km/h8131m2.8m/s-42.6°C37.0%0hPa0V00:00:0000:00:0000:00:00
DL9RDZ-12026-09-03 23:32:5663.95288-22.61506312°7km/h8090m4.3m/s-42.2°C35.9%0hPa0V00:00:0000:00:0000:00:00
DL9RDZ-12026-09-03 23:32:4563.95277-22.61472291°5km/h8047m3.4m/s-41.9°C35.2%0hPa0V00:00:0000:00:0000:00:00
DL9RDZ-12026-09-03 23:32:3563.95270-22.61456306°2km/h8008m3.9m/s-41.6°C35.1%0hPa0V00:00:0000:00:0000:00:00
DL9RDZ-12026-09-03 23:32:2463.95259-22.6145157°4km/h7964m3.6m/s-41.2°C35.0%0hPa0V00:00:0000:00:0000:00:00
DL9RDZ-12026-09-03 23:32:1563.95254-22.614440km/h7925m3.6m/s-41.0°C37.2%0hPa0V00:00:0000:00:0000:00:00
DL9RDZ-12026-09-03 23:32:0463.95240-22.6145396°4km/h7882m2.9m/s-40.9°C41.0%0hPa0V00:00:0000:00:0000:00:00
DL9RDZ-12026-09-03 23:31:5363.95234-22.6148455°4km/h7846m2.7m/s-40.7°C43.1%0hPa0V00:00:0000:00:0000:00:00
DL9RDZ-12026-09-03 23:31:4363.95224-22.6149983°4km/h7810m4.1m/s-40.5°C42.2%0hPa0V00:00:0000:00:0000:00:00
DL9RDZ-12026-09-03 23:31:3463.95210-22.61527361°5km/h7773m3.9m/s-40.1°C36.3%0hPa0V00:00:0000:00:0000:00:00
DL9RDZ-12026-09-03 23:31:2363.95205-22.6156165°9km/h7736m3.4m/s-39.8°C33.7%0hPa0V00:00:0000:00:0000:00:00
DL9RDZ-12026-09-03 23:31:1263.95195-22.6160174°7km/h7696m3.4m/s-39.4°C29.7%0hPa0V00:00:0000:00:0000:00:00
DL9RDZ-12026-09-03 23:31:0263.95187-22.6165191°9km/h7658m4.1m/s-39.1°C23.3%0hPa0V00:00:0000:00:0000:00:00
DL9RDZ-12026-09-03 23:30:5263.95186-22.61703109°7km/h7618m3.6m/s-38.9°C21.5%0hPa0V00:00:0000:00:0000:00:00
DL9RDZ-12026-09-03 23:29:1963.95184-22.62122114°9km/h7305m3.9m/s-36.9°C15.3%0hPa0V00:00:0000:00:0000:00:00
DL9RDZ-12026-09-03 23:29:0863.95184-22.62169105°11km/h7269m3.6m/s-36.6°C15.0%0hPa0V00:00:0000:00:0000:00:00
DL9RDZ-12026-09-03 23:28:5763.95190-22.62220102°11km/h7229m3.4m/s-36.2°C14.6%0hPa0V00:00:0000:00:0000:00:00
DL9RDZ-12026-09-03 23:28:4663.95190-22.6224785°9km/h7193m4.2m/s-35.9°C13.9%0hPa0V00:00:0000:00:0000:00:00
DL9RDZ-12026-09-03 23:28:3663.95196-22.62283135°7km/h7156m4.0m/s-35.6°C13.6%0hPa0V00:00:0000:00:0000:00:00
DL9RDZ-12026-09-03 23:28:2663.95199-22.62333174°5km/h7117m2.6m/s-35.3°C13.5%0hPa0V00:00:0000:00:0000:00:00
DL9RDZ-12026-09-03 23:28:1563.95199-22.6236978°4km/h7078m3.7m/s-34.9°C13.2%0hPa0V00:00:0000:00:0000:00:00
DL9RDZ-12026-09-03 23:28:0563.95202-22.6240078°5km/h7033m4.6m/s-34.6°C12.9%0hPa0V00:00:0000:00:0000:00:00
DL9RDZ-12026-09-03 23:27:5363.95202-22.6244474°7km/h6992m4.2m/s-34.2°C13.0%0hPa0V00:00:0000:00:0000:00:00
DL9RDZ-12026-09-03 23:27:4363.95208-22.62472112°4km/h6954m3.8m/s-34.0°C13.6%0hPa0V00:00:0000:00:0000:00:00
DL9RDZ-12026-09-03 23:27:3363.95208-22.6249269°7km/h6915m4.1m/s-33.6°C15.6%0hPa0V00:00:0000:00:0000:00:00
DL9RDZ-12026-09-03 23:27:2263.95221-22.62521142°9km/h6867m5.9m/s-33.5°C24.3%0hPa0V00:00:0000:00:0000:00:00
DL9RDZ-12026-09-03 23:27:1163.95242-22.62558152°13km/h6823m4.6m/s-33.2°C31.3%0hPa0V00:00:0000:00:0000:00:00
DL9RDZ-12026-09-03 23:27:0163.95267-22.62599147°13km/h6785m3.1m/s-32.9°C34.6%0hPa0V00:00:0000:00:0000:00:00
DL9RDZ-12026-09-03 23:26:4063.95329-22.62691134°15km/h6707m3.7m/s-32.5°C46.7%0hPa0V00:00:0000:00:0000:00:00
DL9RDZ-12026-09-03 23:26:3063.95356-22.62760124°16km/h6668m3.0m/s-32.2°C47.6%0hPa0V00:00:0000:00:0000:00:00
DL9RDZ-12026-09-03 23:26:1963.95382-22.62811140°13km/h6634m3.7m/s-31.9°C48.7%0hPa0V00:00:0000:00:0000:00:00
DL9RDZ-12026-09-03 23:26:0963.95414-22.62872134°15km/h6593m3.2m/s-31.6°C50.0%0hPa0V00:00:0000:00:0000:00:00
DL9RDZ-12026-09-03 23:25:5863.95444-22.62911136°15km/h6559m3.2m/s-31.3°C51.2%0hPa0V00:00:0000:00:0000:00:00
DL9RDZ-12026-09-03 23:25:4863.95471-22.62963142°18km/h6525m2.2m/s-31.1°C56.0%0hPa0V00:00:0000:00:0000:00:00
DL9RDZ-12026-09-03 23:25:3763.95504-22.63013156°11km/h6489m3.3m/s-31.0°C66.3%0hPa0V00:00:0000:00:0000:00:00
DL9RDZ-12026-09-03 23:24:3563.95691-22.63085165°15km/h6278m3.4m/s-29.9°C82.5%0hPa0V00:00:0000:00:0000:00:00
DL9RDZ-12026-09-03 23:24:2563.95733-22.63110165°20km/h6241m2.2m/s-29.6°C81.9%0hPa0V00:00:0000:00:0000:00:00
DL9RDZ-12026-09-03 23:24:1563.95773-22.63138162°18km/h6206m4.1m/s-29.3°C84.2%0hPa0V00:00:0000:00:0000:00:00
DL9RDZ-12026-09-03 23:24:0463.95815-22.63169182°18km/h6166m4.2m/s-28.9°C89.6%0hPa0V00:00:0000:00:0000:00:00
DL9RDZ-12026-09-03 23:23:5463.95852-22.63184161°13km/h6130m2.9m/s-28.7°C82.8%0hPa0V00:00:0000:00:0000:00:00
DL9RDZ-12026-09-03 23:23:4363.95890-22.63193171°13km/h6093m3.3m/s-28.4°C88.6%0hPa0V00:00:0000:00:0000:00:00
DL9RDZ-12026-09-03 23:23:3363.95923-22.63208170°15km/h6056m3.3m/s-28.3°C77.3%0hPa0V00:00:0000:00:0000:00:00
DL9RDZ-12026-09-03 23:23:2263.95959-22.63221179°16km/h6017m3.4m/s-28.1°C75.3%0hPa0V00:00:0000:00:0000:00:00
DL9RDZ-12026-09-03 23:23:1163.95995-22.63231182°16km/h5977m2.7m/s-27.8°C79.9%0hPa0V00:00:0000:00:0000:00:00
DL9RDZ-12026-09-03 23:23:0263.96038-22.63232184°16km/h5944m3.0m/s-27.4°C89.6%0hPa0V00:00:0000:00:0000:00:00
DL9RDZ-12026-09-03 23:22:5063.96086-22.63229188°18km/h5905m3.7m/s-27.0°C89.1%0hPa0V00:00:0000:00:0000:00:00
DL9RDZ-12026-09-03 23:22:4063.96130-22.63232183°16km/h5869m2.9m/s-26.8°C88.7%0hPa0V00:00:0000:00:0000:00:00
DL9RDZ-12026-09-03 23:22:2963.96181-22.63232173°20km/h5829m3.1m/s-26.6°C92.4%0hPa0V00:00:0000:00:0000:00:00
DL9RDZ-12026-09-03 23:22:1863.96221-22.63245174°16km/h5791m3.9m/s-26.3°C92.6%0hPa0V00:00:0000:00:0000:00:00
DL9RDZ-12026-09-03 23:22:0863.96262-22.63258169°13km/h5751m2.4m/s-26.0°C90.2%0hPa0V00:00:0000:00:0000:00:00
DL9RDZ-12026-09-03 23:21:4663.96325-22.63295201°7km/h5679m5.7m/s-25.7°C97.7%0hPa0V00:00:0000:00:0000:00:00
DL9RDZ-12026-09-03 23:21:3563.96360-22.63314154°7km/h5627m3.1m/s-25.3°C0%0hPa0V00:00:0000:00:0000:00:00
DL9RDZ-12026-09-03 23:21:2463.96396-22.63310188°18km/h5579m3.8m/s-24.9°C98.6%0hPa0V00:00:0000:00:0000:00:00
DL9RDZ-12026-09-03 23:21:1363.96444-22.63282210°18km/h5530m4.9m/s-24.4°C97.4%0hPa0V00:00:0000:00:0000:00:00
DL9RDZ-12026-09-03 23:21:0263.96466-22.63241224°7km/h5485m2.3m/s-24.0°C97.0%0hPa0V00:00:0000:00:0000:00:00
DL9RDZ-12026-09-03 23:20:5263.96499-22.63213159°15km/h5440m4.3m/s-23.5°C89.9%0hPa0V00:00:0000:00:0000:00:00
DL9RDZ-12026-09-03 23:20:4163.96548-22.63199153°13km/h5394m5.6m/s-23.2°C92.1%0hPa0V00:00:0000:00:0000:00:00
DL9RDZ-12026-09-03 23:20:3163.96582-22.63147181°24km/h5356m3.4m/s-22.7°C95.1%0hPa0V00:00:0000:00:0000:00:00
DL9RDZ-12026-09-03 23:20:2063.96621-22.63165173°15km/h5309m5.4m/s-22.3°C91.5%0hPa0V00:00:0000:00:0000:00:00
DL9RDZ-12026-09-03 23:20:1163.96654-22.63167193°15km/h5263m5.0m/s-21.8°C89.8%0hPa0V00:00:0000:00:0000:00:00
DL9RDZ-12026-09-03 23:19:5963.96703-22.63165174°16km/h5212m6.4m/s-21.3°C87.2%0hPa0V00:00:0000:00:0000:00:00
DL9RDZ-12026-09-03 23:19:4863.96730-22.63197156°5km/h5156m4.5m/s-20.8°C82.6%0hPa0V00:00:0000:00:0000:00:00
DL9RDZ-12026-09-03 23:19:3763.96768-22.63197208°18km/h5102m4.1m/s-20.3°C80.7%0hPa0V00:00:0000:00:0000:00:00
DL9RDZ-12026-09-03 23:19:2663.96799-22.6319394°5km/h5053m5.0m/s-19.8°C76.2%0hPa0V00:00:0000:00:0000:00:00
DL9RDZ-12026-09-03 23:19:1663.96826-22.63189202°18km/h5009m4.3m/s-19.4°C74.3%0hPa0V00:00:0000:00:0000:00:00
DL9RDZ-12026-09-03 23:19:0563.96860-22.63191162°18km/h4958m5.5m/s-18.9°C75.4%0hPa0V00:00:0000:00:0000:00:00
DL9RDZ-12026-09-03 23:18:4463.96904-22.63202173°13km/h4857m6.4m/s-18.2°C81.8%0hPa0V00:00:0000:00:0000:00:00
DL9RDZ-12026-09-03 23:18:3363.96934-22.63212161°20km/h4792m3.4m/s-17.7°C81.9%0hPa0V00:00:0000:00:0000:00:00
DL9RDZ-12026-09-03 23:18:2263.96980-22.63229166°15km/h4744m3.3m/s-17.5°C81.3%0hPa0V00:00:0000:00:0000:00:00
DL9RDZ-12026-09-03 23:18:1263.97027-22.63264161°18km/h4702m5.2m/s-17.2°C78.9%0hPa0V00:00:0000:00:0000:00:00
DL9RDZ-12026-09-03 23:18:0163.97068-22.63314148°20km/h4661m3.1m/s-16.8°C77.7%0hPa0V00:00:0000:00:0000:00:00
DL9RDZ-12026-09-03 23:17:5063.97104-22.63387133°18km/h4623m4.3m/s-16.5°C76.0%0hPa0V00:00:0000:00:0000:00:00
DL9RDZ-12026-09-03 23:17:3663.97148-22.63487142°15km/h4572m2.8m/s-16.1°C74.4%0hPa0V00:00:0000:00:0000:00:00
DL9RDZ-12026-09-03 23:17:2663.97173-22.63555124°15km/h4536m3.0m/s-15.7°C72.7%0hPa0V00:00:0000:00:0000:00:00
DL9RDZ-12026-09-03 23:17:1663.97202-22.63641126°16km/h4500m3.8m/s-15.4°C71.2%0hPa0V00:00:0000:00:0000:00:00
DL9RDZ-12026-09-03 23:17:0663.97230-22.63721126°16km/h4462m3.4m/s-15.0°C70.0%0hPa0V00:00:0000:00:0000:00:00
DL9RDZ-12026-09-03 23:16:5563.97260-22.63805130°16km/h4423m4.4m/s-14.7°C69.1%0hPa0V00:00:0000:00:0000:00:00
DL9RDZ-12026-09-03 23:16:4463.97283-22.63881125°16km/h4386m4.2m/s-14.7°C76.3%0hPa0V00:00:0000:00:0000:00:00
DL9RDZ-12026-09-03 23:16:3363.97308-22.63960133°13km/h4343m3.6m/s-14.7°C84.0%0hPa0V00:00:0000:00:0000:00:00
DL9RDZ-12026-09-03 23:16:2263.97329-22.64029109°13km/h4301m3.7m/s-14.7°C87.8%0hPa0V00:00:0000:00:0000:00:00
DL9RDZ-12026-09-03 23:16:1163.97332-22.6408295°9km/h4258m4.1m/s-14.7°C88.3%0hPa0V00:00:0000:00:0000:00:00
DL9RDZ-12026-09-03 23:16:0063.97335-22.64090324°4km/h4203m6.2m/s-14.7°C88.2%0hPa0V00:00:0000:00:0000:00:00
DL9RDZ-12026-09-03 23:15:5063.97331-22.64073288°5km/h4153m4.4m/s-14.3°C85.8%0hPa0V00:00:0000:00:0000:00:00
DL9RDZ-12026-09-03 23:15:4063.97322-22.64042287°5km/h4115m2.9m/s-14.0°C84.2%0hPa0V00:00:0000:00:0000:00:00
DL9RDZ-12026-09-03 23:15:2963.97315-22.63990281°9km/h4074m5.0m/s-13.7°C81.1%0hPa0V00:00:0000:00:0000:00:00
DL9RDZ-12026-09-03 23:15:1963.97314-22.63942263°7km/h4034m4.4m/s-13.3°C79.1%0hPa0V00:00:0000:00:0000:00:00
DL9RDZ-12026-09-03 23:15:0863.97311-22.63870295°16km/h3990m3.1m/s-13.0°C77.4%0hPa0V00:00:0000:00:0000:00:00
DL9RDZ-12026-09-03 23:14:5763.97306-22.63782264°13km/h3947m4.0m/s-12.6°C75.3%0hPa0V00:00:0000:00:0000:00:00
DL9RDZ-12026-09-03 23:14:4763.97304-22.63699275°13km/h3908m4.3m/s-12.3°C73.6%0hPa0V00:00:0000:00:0000:00:00
DL9RDZ-12026-09-03 23:14:3663.97303-22.63610252°13km/h3865m4.2m/s-11.9°C71.8%0hPa0V00:00:0000:00:0000:00:00
DL9RDZ-12026-09-03 23:14:2563.97307-22.63518274°13km/h3822m4.4m/s-11.5°C70.4%0hPa0V00:00:0000:00:0000:00:00
DL9RDZ-12026-09-03 23:14:1563.97305-22.63412280°18km/h3776m4.7m/s-11.1°C69.1%0hPa0V00:00:0000:00:0000:00:00
DL9RDZ-12026-09-03 23:14:0363.97301-22.63301277°15km/h3737m3.4m/s-10.8°C68.3%0hPa0V00:00:0000:00:0000:00:00
DL9RDZ-12026-09-03 23:13:5363.97296-22.63206270°16km/h3700m3.5m/s-10.5°C66.7%0hPa0V00:00:0000:00:0000:00:00
DL9RDZ-12026-09-03 23:13:3363.97287-22.62984283°18km/h3625m3.6m/s-11.7°C85.4%0hPa0V00:00:0000:00:0000:00:00
DL9RDZ-12026-09-03 23:13:2163.97268-22.62866312°24km/h3583m4.8m/s-11.7°C95.8%0hPa0V00:00:0000:00:0000:00:00
DL9RDZ-12026-09-03 23:13:1063.97245-22.62817321°15km/h3526m6.1m/s-11.4°C98.2%0hPa0V00:00:0000:00:0000:00:00
DL9RDZ-12026-09-03 23:12:5963.97222-22.62744283°11km/h3459m5.3m/s-10.9°C99.9%0hPa0V00:00:0000:00:0000:00:00
DL9RDZ-12026-09-03 23:12:4863.97195-22.62663300°7km/h3401m5.1m/s-10.5°C99.6%0hPa0V00:00:0000:00:0000:00:00
DL9RDZ-12026-09-03 23:12:3863.97167-22.62614352°7km/h3348m4.1m/s-10.1°C0%0hPa0V00:00:0000:00:0000:00:00
DL9RDZ-12026-09-03 23:12:2763.97143-22.62556311°20km/h3288m4.0m/s-9.6°C97.6%0hPa0V00:00:0000:00:0000:00:00
DL9RDZ-12026-09-03 23:12:1663.97104-22.62489338°24km/h3234m5.2m/s-9.0°C94.5%0hPa0V00:00:0000:00:0000:00:00
DL9RDZ-12026-09-03 23:12:0663.97081-22.62467287°16km/h3181m4.0m/s-8.5°C91.9%0hPa0V00:00:0000:00:0000:00:00
DL9RDZ-12026-09-03 23:11:5563.97067-22.62367272°13km/h3136m3.6m/s-8.1°C90.0%0hPa0V00:00:0000:00:0000:00:00
DL9RDZ-12026-09-03 23:11:4463.97040-22.62316343°18km/h3083m2.8m/s-7.7°C88.0%0hPa0V00:00:0000:00:0000:00:00
DL9RDZ-12026-09-03 23:09:4563.96753-22.62092343°16km/h2577m4.0m/s-5.2°C99.6%0hPa0V00:00:0000:00:0000:00:00
DL9RDZ-12026-09-03 23:09:3463.96710-22.62058338°16km/h2531m3.8m/s-4.9°C99.6%0hPa0V00:00:0000:00:0000:00:00
DL9RDZ-12026-09-03 23:09:2463.96670-22.62018334°18km/h2489m4.0m/s-4.8°C99.6%0hPa0V00:00:0000:00:0000:00:00
DL9RDZ-12026-09-03 23:09:1363.96626-22.61956331°18km/h2443m3.4m/s-4.5°C99.7%0hPa0V00:00:0000:00:0000:00:00
DL9RDZ-12026-09-03 23:09:0363.96575-22.61915341°22km/h2400m4.2m/s-4.2°C99.0%0hPa0V00:00:0000:00:0000:00:00
DL9RDZ-12026-09-03 23:08:5263.96517-22.61885354°24km/h2360m3.0m/s-4.0°C99.3%0hPa0V00:00:0000:00:0000:00:00
DL9RDZ-12026-09-03 23:08:4263.96464-22.61858348°18km/h2324m3.2m/s-3.7°C99.4%0hPa0V00:00:0000:00:0000:00:00
DL9RDZ-12026-09-03 23:08:3163.96399-22.61846346°24km/h2276m5.5m/s-3.4°C98.9%0hPa0V00:00:0000:00:0000:00:00
DL9RDZ-12026-09-03 23:08:2063.96333-22.61797347°24km/h2232m3.5m/s-3.1°C99.5%0hPa0V00:00:0000:00:0000:00:00
DL9RDZ-12026-09-03 23:08:1063.96275-22.61753342°27km/h2195m3.3m/s-3.0°C0%0hPa0V00:00:0000:00:0000:00:00
DL9RDZ-12026-09-03 23:07:5963.96203-22.61726339°16km/h2153m5.8m/s-2.8°C99.3%0hPa0V00:00:0000:00:0000:00:00
DL9RDZ-12026-09-03 23:07:4863.96161-22.61695343°24km/h2093m4.5m/s-2.4°C99.6%0hPa0V00:00:0000:00:0000:00:00
DL9RDZ-12026-09-03 23:07:3763.96115-22.61675334°16km/h2032m6.4m/s-2.3°C98.5%0hPa0V00:00:0000:00:0000:00:00
DL9RDZ-12026-09-03 23:07:2663.96065-22.61636349°15km/h1986m5.3m/s-2.2°C0%0hPa0V00:00:0000:00:0000:00:00
DL9RDZ-12026-09-03 23:07:1563.96042-22.61614341°7km/h1925m6.5m/s-1.9°C98.3%0hPa0V00:00:0000:00:0000:00:00
DL9RDZ-12026-09-03 23:07:0563.96046-22.61577230°5km/h1871m6.4m/s-1.7°C98.3%0hPa0V00:00:0000:00:0000:00:00
DL9RDZ-12026-09-03 23:06:5463.96069-22.61522221°9km/h1822m5.4m/s-1.4°C98.8%0hPa0V00:00:0000:00:0000:00:00
DL9RDZ-12026-09-03 23:06:4463.96080-22.61513262°9km/h1770m5.2m/s-1.2°C98.4%0hPa0V00:00:0000:00:0000:00:00
DL9RDZ-12026-09-03 23:06:3363.96090-22.61484300°9km/h1724m4.8m/s-0.9°C99.1%0hPa0V00:00:0000:00:0000:00:00
DL9RDZ-12026-09-03 23:06:2363.96103-22.61489202°15km/h1671m4.8m/s-0.6°C98.6%0hPa0V00:00:0000:00:0000:00:00
DL9RDZ-12026-09-03 23:06:1263.96117-22.61475163°11km/h1619m4.9m/s-0.2°C98.2%0hPa0V00:00:0000:00:0000:00:00
DL9RDZ-12026-09-03 23:06:0263.96124-22.61475219°9km/h1572m4.5m/s0.0°C98.4%0hPa0V00:00:0000:00:0000:00:00
DL9RDZ-12026-09-03 23:05:5163.96142-22.61466186°9km/h1515m7.3m/s0.4°C98.6%0hPa0V00:00:0000:00:0000:00:00
DL9RDZ-12026-09-03 23:05:4163.96147-22.614655km/h1456m4.5m/s0.7°C99.7%0hPa0V00:00:0000:00:0000:00:00
DL9RDZ-12026-09-03 23:05:3063.96146-22.61469352°7km/h1401m5.0m/s1.1°C99.2%0hPa0V00:00:0000:00:0000:00:00
DL9RDZ-12026-09-03 23:05:1963.96142-22.61510122°11km/h1340m5.9m/s1.5°C98.1%0hPa0V00:00:0000:00:0000:00:00
DL9RDZ-12026-09-03 23:05:0863.96146-22.61486272°11km/h1281m7.0m/s2.0°C96.4%0hPa0V00:00:0000:00:0000:00:00
DL9RDZ-12026-09-03 23:04:5863.96156-22.61485239°4km/h1230m7.0m/s2.4°C0%0hPa0V00:00:0000:00:0000:00:00
DL9RDZ-12026-09-03 23:04:3663.96125-22.61415282°18km/h1118m5.0m/s2.2°C0%0hPa0V00:00:0000:00:0000:00:00
DL9RDZ-12026-09-03 23:04:2563.96128-22.61353288°11km/h1057m4.9m/s2.4°C0%0hPa0V00:00:0000:00:0000:00:00
DL9RDZ-12026-09-03 23:04:1563.96133-22.61319303°7km/h1008m3.9m/s0°C0%0hPa0V00:00:0000:00:0000:00:00
DL9RDZ-12026-09-03 23:04:0663.96138-22.61264191°5km/h954m5.1m/s0°C0%0hPa0V00:00:0000:00:0000:00:00
DL9RDZ-12026-09-03 23:03:5563.96146-22.61238270°9km/h905m4.3m/s0°C0%0hPa0V00:00:0000:00:0000:00:00
DL9RDZ-12026-09-03 23:03:4463.96147-22.61201192°5km/h850m6.4m/s0°C0%0hPa0V00:00:0000:00:0000:00:00
DL9RDZ-12026-09-03 23:03:3363.96169-22.61164322°4km/h790m5.2m/s0°C0%0hPa0V00:00:0000:00:0000:00:00


GPX KML Map

© wettersonde.net (DO2JMG) - 2026  -  -